createdAt,value
2022-10-23T00:03:29.258Z,8.70
2022-10-23T00:08:30.772Z,8.69
2022-10-23T00:13:32.237Z,8.66
2022-10-23T00:18:37.041Z,8.69
2022-10-23T00:23:39.109Z,8.68
2022-10-23T00:28:40.713Z,8.64
2022-10-23T00:33:43.233Z,8.57
2022-10-23T00:38:48.391Z,8.55
2022-10-23T00:44:09.492Z,8.56
2022-10-23T00:54:24.460Z,8.52
2022-10-23T00:59:27.290Z,8.45
2022-10-23T01:04:29.740Z,8.40
2022-10-23T01:10:03.606Z,8.32
2022-10-23T01:15:38.017Z,8.25
2022-10-23T01:20:48.768Z,8.19
2022-10-23T01:26:10.249Z,8.16
2022-10-23T01:31:18.720Z,8.10
2022-10-23T01:36:24.233Z,8.10
2022-10-23T01:41:35.889Z,8.11
2022-10-23T01:46:40.097Z,8.07
2022-10-23T01:51:48.652Z,8.00
2022-10-23T01:56:52.733Z,7.99
2022-10-23T02:02:00.494Z,7.94
2022-10-23T02:07:02.643Z,7.87
2022-10-23T02:12:17.384Z,7.79
2022-10-23T02:17:27.734Z,7.73
2022-10-23T02:22:36.859Z,7.70
2022-10-23T02:27:44.917Z,7.68
2022-10-23T02:32:50.809Z,7.64
2022-10-23T02:37:56.731Z,7.59
2022-10-23T02:43:27.633Z,7.57
2022-10-23T02:48:44.746Z,7.55
2022-10-23T02:54:24.222Z,7.51
2022-10-23T03:00:05.053Z,7.46
2022-10-23T03:05:10.530Z,7.40
2022-10-23T03:10:12.360Z,7.41
2022-10-23T03:15:13.798Z,7.53
2022-10-23T03:20:15.301Z,7.56
2022-10-23T03:25:18.888Z,7.60
2022-10-23T03:30:20.836Z,7.65
2022-10-23T03:35:27.388Z,7.62
2022-10-23T03:40:29.010Z,7.64
2022-10-23T03:45:30.895Z,7.74
2022-10-23T03:50:32.423Z,7.76
2022-10-23T03:55:33.912Z,7.87
2022-10-23T04:00:35.547Z,7.97
2022-10-23T04:05:37.726Z,8.06
2022-10-23T04:10:39.353Z,8.19
2022-10-23T04:15:40.832Z,8.28
2022-10-23T04:20:42.417Z,8.32
2022-10-23T04:25:43.937Z,8.32
2022-10-23T04:30:45.741Z,8.22
2022-10-23T04:35:47.403Z,8.18
2022-10-23T04:40:48.909Z,8.09
2022-10-23T04:45:55.026Z,7.95
2022-10-23T04:51:01.522Z,7.87
2022-10-23T04:56:21.430Z,7.78
2022-10-23T05:01:25.932Z,7.69
2022-10-23T05:06:27.669Z,7.64
2022-10-23T05:11:48.187Z,7.57
2022-10-23T05:17:00.652Z,7.58
2022-10-23T05:22:02.430Z,7.60
2022-10-23T05:27:20.270Z,7.65
2022-10-23T05:32:24.251Z,7.73
2022-10-23T05:37:26.382Z,7.82
2022-10-23T05:42:40.913Z,7.91
2022-10-23T05:47:45.272Z,7.93
2022-10-23T05:53:30.853Z,8.02
2022-10-23T05:58:58.802Z,8.06
2022-10-23T06:04:19.156Z,8.06
2022-10-23T06:09:43.554Z,8.03
2022-10-23T06:14:45.058Z,8.00
2022-10-23T06:19:47.089Z,7.91
2022-10-23T06:24:51.939Z,7.83
2022-10-23T06:30:01.326Z,7.76
2022-10-23T06:35:03.837Z,7.79
2022-10-23T06:40:06.430Z,7.79
2022-10-23T06:45:14.297Z,7.86
2022-10-23T06:50:18.928Z,7.94
2022-10-23T06:55:21.655Z,8.05
2022-10-23T07:00:23.438Z,8.16
2022-10-23T07:05:26.081Z,8.27
2022-10-23T07:10:27.763Z,8.45
2022-10-23T07:15:32.453Z,8.69
2022-10-23T07:20:34.701Z,8.98
2022-10-23T07:25:37.748Z,9.41
2022-10-23T07:30:56.440Z,9.68
2022-10-23T07:36:02.452Z,9.72
2022-10-23T07:41:06.820Z,9.76
2022-10-23T07:46:12.733Z,9.78
2022-10-23T07:51:16.114Z,9.81
2022-10-23T07:56:26.221Z,9.80
2022-10-23T08:01:52.688Z,9.89
2022-10-23T08:07:01.045Z,9.96
2022-10-23T08:12:05.469Z,10.03
2022-10-23T08:17:09.826Z,10.14
2022-10-23T08:22:30.665Z,10.23
2022-10-23T08:27:32.655Z,10.36
2022-10-23T08:32:34.506Z,10.54
2022-10-23T08:37:37.794Z,10.71
2022-10-23T08:42:41.847Z,10.88
2022-10-23T08:47:50.679Z,10.98
2022-10-23T08:53:34.654Z,11.22
2022-10-23T09:04:00.064Z,11.51
2022-10-23T09:09:28.840Z,11.75
2022-10-23T09:14:55.372Z,11.98
2022-10-23T09:20:06.336Z,12.28
2022-10-23T09:25:18.621Z,12.54
2022-10-23T09:30:36.712Z,12.77
2022-10-23T09:35:38.206Z,13.06
2022-10-23T09:40:43.923Z,13.38
2022-10-23T09:45:57.198Z,13.79
2022-10-23T09:51:14.520Z,14.07
2022-10-23T09:56:33.157Z,14.13
2022-10-23T10:01:45.215Z,14.00
2022-10-23T10:07:20.691Z,14.07
2022-10-23T10:12:31.514Z,14.22
2022-10-23T10:17:37.615Z,14.26
2022-10-23T10:22:54.150Z,14.27
2022-10-23T10:28:10.136Z,14.23
2022-10-23T10:33:22.766Z,14.22
2022-10-23T10:38:45.401Z,14.45
2022-10-23T10:44:11.896Z,14.71
2022-10-23T10:49:19.877Z,14.78
2022-10-23T10:54:50.036Z,14.85
2022-10-23T10:59:55.505Z,15.00
2022-10-23T11:05:19.411Z,15.20
2022-10-23T11:10:21.587Z,15.21
2022-10-23T11:15:37.332Z,15.30
2022-10-23T11:21:14.483Z,15.27
2022-10-23T11:26:55.018Z,15.37
2022-10-23T11:32:20.920Z,15.60
2022-10-23T11:37:24.463Z,15.79
2022-10-23T11:42:31.642Z,16.10
2022-10-23T11:47:42.559Z,16.22
2022-10-23T11:53:14.610Z,15.93
2022-10-23T11:58:23.746Z,15.82
2022-10-23T12:03:36.272Z,15.96
2022-10-23T12:08:40.735Z,16.34
2022-10-23T12:13:45.319Z,16.43
2022-10-23T12:18:49.796Z,16.36
2022-10-23T12:24:09.295Z,16.24
2022-10-23T12:29:40.915Z,16.16
2022-10-23T12:34:42.390Z,16.15
2022-10-23T12:39:43.948Z,15.98
2022-10-23T12:44:45.700Z,15.99
2022-10-23T12:49:51.293Z,16.04
2022-10-23T12:54:53.507Z,16.09
2022-10-23T13:00:10.550Z,16.10
2022-10-23T13:05:17.722Z,16.08
2022-10-23T13:10:21.355Z,16.06
2022-10-23T13:15:38.014Z,16.07
2022-10-23T13:20:51.743Z,16.20
2022-10-23T13:26:19.327Z,16.11
2022-10-23T13:31:20.727Z,16.04
2022-10-23T13:36:24.426Z,16.00
2022-10-23T13:41:28.452Z,15.93
2022-10-23T13:46:29.925Z,15.94
2022-10-23T13:51:38.865Z,15.94
2022-10-23T13:56:43.611Z,15.92
2022-10-23T14:01:47.766Z,15.90
2022-10-23T14:06:49.868Z,15.81
2022-10-23T14:11:51.971Z,15.80
2022-10-23T14:16:54.679Z,15.77
2022-10-23T14:21:56.198Z,15.77
2022-10-23T14:26:57.673Z,15.71
2022-10-23T14:31:59.158Z,15.71
2022-10-23T14:37:09.294Z,15.73
2022-10-23T14:42:10.968Z,15.66
2022-10-23T14:47:12.541Z,15.63
2022-10-23T14:52:14.015Z,15.55
2022-10-23T14:57:17.832Z,15.55
2022-10-23T15:02:19.342Z,15.55
2022-10-23T15:07:20.816Z,15.51
2022-10-23T15:12:22.940Z,15.49
2022-10-23T15:17:24.450Z,15.39
2022-10-23T15:22:26.310Z,15.33
2022-10-23T15:27:27.755Z,15.29
2022-10-23T15:32:29.186Z,15.26
2022-10-23T15:37:30.651Z,15.18
2022-10-23T15:42:32.213Z,15.13
2022-10-23T15:47:33.892Z,15.06
2022-10-23T15:52:35.627Z,14.93
2022-10-23T15:57:40.630Z,14.82
2022-10-23T16:02:42.762Z,14.76
2022-10-23T16:07:44.482Z,14.72
2022-10-23T16:12:46.145Z,14.66
2022-10-23T16:17:48.907Z,14.68
2022-10-23T16:22:50.365Z,14.67
2022-10-23T16:27:51.844Z,14.62
2022-10-23T16:32:54.765Z,14.63
2022-10-23T16:37:56.263Z,14.66
2022-10-23T16:42:58.597Z,14.58
2022-10-23T16:48:06.828Z,14.51
2022-10-23T16:53:08.465Z,14.45
2022-10-23T16:58:10.019Z,14.46
2022-10-23T17:03:11.472Z,14.43
2022-10-23T17:08:12.925Z,14.40
2022-10-23T17:13:14.372Z,14.40
2022-10-23T17:18:15.827Z,14.42
2022-10-23T17:23:17.310Z,14.41
2022-10-23T17:28:18.792Z,14.43
2022-10-23T17:33:20.256Z,14.45
2022-10-23T17:38:21.694Z,14.43
2022-10-23T17:43:23.147Z,14.46
2022-10-23T17:48:26.124Z,14.40
2022-10-23T17:53:27.792Z,14.37
2022-10-23T17:58:30.063Z,14.36
2022-10-23T18:03:31.540Z,14.38
2022-10-23T18:08:33.201Z,14.49
2022-10-23T18:13:36.585Z,14.56
2022-10-23T18:18:40.059Z,14.66
2022-10-23T18:23:42.462Z,14.67
2022-10-23T18:28:48.273Z,14.60
2022-10-23T18:33:49.811Z,14.57
2022-10-23T18:38:51.664Z,14.59
2022-10-23T18:43:54.285Z,14.60
2022-10-23T18:48:55.753Z,14.63
2022-10-23T18:53:59.870Z,14.80
2022-10-23T18:59:03.843Z,14.93
2022-10-23T19:04:05.719Z,15.04
2022-10-23T19:09:09.138Z,15.10
2022-10-23T19:14:10.914Z,15.09
2022-10-23T19:19:18.471Z,15.20
2022-10-23T19:24:23.512Z,15.23
2022-10-23T19:29:27.463Z,15.21
2022-10-23T19:34:28.972Z,15.26
2022-10-23T19:39:30.512Z,15.18
2022-10-23T19:44:31.982Z,15.21
2022-10-23T19:49:33.459Z,15.10
2022-10-23T19:54:35.248Z,15.00
2022-10-23T19:59:36.825Z,14.91
2022-10-23T20:04:38.289Z,14.89
2022-10-23T20:09:40.424Z,14.79
2022-10-23T20:14:41.949Z,14.70
2022-10-23T20:19:44.557Z,14.72
2022-10-23T20:24:46.148Z,14.69
2022-10-23T20:29:48.554Z,14.62
2022-10-23T20:34:50.396Z,14.55
2022-10-23T20:39:54.798Z,14.53
2022-10-23T20:44:56.273Z,14.56
2022-10-23T20:49:57.719Z,14.57
2022-10-23T20:54:59.400Z,14.54
2022-10-23T21:00:02.991Z,14.52
2022-10-23T21:05:04.795Z,14.50
2022-10-23T21:10:06.767Z,14.50
2022-10-23T21:15:09.037Z,14.49
2022-10-23T21:20:10.562Z,14.49
2022-10-23T21:25:12.003Z,14.41
2022-10-23T21:30:13.523Z,14.37
2022-10-23T21:35:15.213Z,14.32
2022-10-23T21:40:16.747Z,14.31
2022-10-23T21:45:18.463Z,14.32
2022-10-23T21:50:20.290Z,14.28
2022-10-23T21:55:26.072Z,14.28
2022-10-23T22:00:27.554Z,14.31
2022-10-23T22:05:29.071Z,14.29
2022-10-23T22:10:30.530Z,14.31
2022-10-23T22:15:31.984Z,14.37
2022-10-23T22:20:33.480Z,14.45
2022-10-23T22:25:38.306Z,14.52
2022-10-23T22:30:39.784Z,14.53
2022-10-23T22:35:41.284Z,14.47
2022-10-23T22:40:46.490Z,14.53
2022-10-23T22:45:48.299Z,14.45
2022-10-23T22:50:49.773Z,14.40
2022-10-23T22:55:52.042Z,14.44
2022-10-23T23:01:02.579Z,14.49
2022-10-23T23:06:05.772Z,14.56
2022-10-23T23:11:09.120Z,14.58
2022-10-23T23:16:19.893Z,14.62
2022-10-23T23:21:22.045Z,14.60
2022-10-23T23:26:23.647Z,14.58
2022-10-23T23:31:26.382Z,14.63
2022-10-23T23:36:28.677Z,14.60
2022-10-23T23:41:30.443Z,14.71
2022-10-23T23:46:31.896Z,14.83
2022-10-23T23:51:33.421Z,14.90
2022-10-23T23:56:35.413Z,15.01
